sensor_id;sensor_type;location;lat;lon;timestamp;temperature;humidity
11035;DHT22;5571;48.110;-1.706;2023-06-14T00:01:20;18.80;99.90
11035;DHT22;5571;48.110;-1.706;2023-06-14T00:03:47;18.80;99.90
11035;DHT22;5571;48.110;-1.706;2023-06-14T00:06:13;18.80;99.90
11035;DHT22;5571;48.110;-1.706;2023-06-14T00:08:40;18.90;99.90
11035;DHT22;5571;48.110;-1.706;2023-06-14T00:11:06;18.90;99.90
11035;DHT22;5571;48.110;-1.706;2023-06-14T00:13:32;18.90;99.90
11035;DHT22;5571;48.110;-1.706;2023-06-14T00:15:58;18.80;99.90
11035;DHT22;5571;48.110;-1.706;2023-06-14T00:18:24;18.80;99.90
11035;DHT22;5571;48.110;-1.706;2023-06-14T00:20:52;18.80;99.90
11035;DHT22;5571;48.110;-1.706;2023-06-14T00:23:18;18.80;99.90
11035;DHT22;5571;48.110;-1.706;2023-06-14T00:25:43;18.80;99.90
11035;DHT22;5571;48.110;-1.706;2023-06-14T00:28:09;18.90;99.90
11035;DHT22;5571;48.110;-1.706;2023-06-14T00:30:35;18.80;99.90
11035;DHT22;5571;48.110;-1.706;2023-06-14T00:33:00;18.80;99.90
11035;DHT22;5571;48.110;-1.706;2023-06-14T00:35:26;18.80;99.90
11035;DHT22;5571;48.110;-1.706;2023-06-14T00:37:52;18.70;99.90
11035;DHT22;5571;48.110;-1.706;2023-06-14T00:40:20;18.50;99.90
11035;DHT22;5571;48.110;-1.706;2023-06-14T00:42:45;18.50;99.90
11035;DHT22;5571;48.110;-1.706;2023-06-14T00:45:11;18.40;99.90
11035;DHT22;5571;48.110;-1.706;2023-06-14T00:47:38;18.50;99.90
11035;DHT22;5571;48.110;-1.706;2023-06-14T00:50:09;18.40;99.90
11035;DHT22;5571;48.110;-1.706;2023-06-14T00:52:35;18.50;99.90
11035;DHT22;5571;48.110;-1.706;2023-06-14T00:55:01;18.50;99.90
11035;DHT22;5571;48.110;-1.706;2023-06-14T00:57:27;18.50;99.90
11035;DHT22;5571;48.110;-1.706;2023-06-14T00:59:55;18.50;99.90
11035;DHT22;5571;48.110;-1.706;2023-06-14T01:02:21;18.40;99.90
11035;DHT22;5571;48.110;-1.706;2023-06-14T01:04:48;18.40;99.90
11035;DHT22;5571;48.110;-1.706;2023-06-14T01:10:05;18.40;99.90
11035;DHT22;5571;48.110;-1.706;2023-06-14T01:12:37;18.40;99.90
11035;DHT22;5571;48.110;-1.706;2023-06-14T01:15:05;18.40;99.90
11035;DHT22;5571;48.110;-1.706;2023-06-14T01:17:31;18.40;99.90
11035;DHT22;5571;48.110;-1.706;2023-06-14T01:20:04;18.40;99.90
11035;DHT22;5571;48.110;-1.706;2023-06-14T01:22:35;18.40;99.90
11035;DHT22;5571;48.110;-1.706;2023-06-14T01:25:01;18.40;99.90
11035;DHT22;5571;48.110;-1.706;2023-06-14T01:27:26;18.30;99.90
11035;DHT22;5571;48.110;-1.706;2023-06-14T01:29:55;18.30;99.90
11035;DHT22;5571;48.110;-1.706;2023-06-14T01:32:24;18.30;99.90
11035;DHT22;5571;48.110;-1.706;2023-06-14T01:34:50;18.30;99.90
11035;DHT22;5571;48.110;-1.706;2023-06-14T01:37:16;18.30;99.90
11035;DHT22;5571;48.110;-1.706;2023-06-14T01:39:43;18.30;99.90
11035;DHT22;5571;48.110;-1.706;2023-06-14T01:42:09;18.30;99.90
11035;DHT22;5571;48.110;-1.706;2023-06-14T01:44:37;18.30;99.90
11035;DHT22;5571;48.110;-1.706;2023-06-14T01:47:03;18.30;99.90
11035;DHT22;5571;48.110;-1.706;2023-06-14T01:49:28;18.40;99.90
11035;DHT22;5571;48.110;-1.706;2023-06-14T01:51:54;18.40;99.90
11035;DHT22;5571;48.110;-1.706;2023-06-14T01:54:20;18.40;99.90
11035;DHT22;5571;48.110;-1.706;2023-06-14T01:56:47;18.30;99.90
11035;DHT22;5571;48.110;-1.706;2023-06-14T01:59:12;18.30;99.90
11035;DHT22;5571;48.110;-1.706;2023-06-14T02:01:38;18.30;99.90
11035;DHT22;5571;48.110;-1.706;2023-06-14T02:04:04;18.30;99.90
11035;DHT22;5571;48.110;-1.706;2023-06-14T02:06:30;18.30;99.90
11035;DHT22;5571;48.110;-1.706;2023-06-14T02:08:55;18.40;99.90
11035;DHT22;5571;48.110;-1.706;2023-06-14T02:11:21;18.40;99.90
11035;DHT22;5571;48.110;-1.706;2023-06-14T02:13:46;18.40;99.90
11035;DHT22;5571;48.110;-1.706;2023-06-14T02:16:12;18.40;99.90
11035;DHT22;5571;48.110;-1.706;2023-06-14T02:18:38;18.30;99.90
11035;DHT22;5571;48.110;-1.706;2023-06-14T02:21:03;18.20;99.90
11035;DHT22;5571;48.110;-1.706;2023-06-14T02:23:29;18.10;99.90
11035;DHT22;5571;48.110;-1.706;2023-06-14T02:25:54;18.00;99.90
11035;DHT22;5571;48.110;-1.706;2023-06-14T02:28:20;18.10;99.90
11035;DHT22;5571;48.110;-1.706;2023-06-14T02:30:46;18.10;99.90
11035;DHT22;5571;48.110;-1.706;2023-06-14T02:33:12;17.90;99.90
11035;DHT22;5571;48.110;-1.706;2023-06-14T02:35:38;17.90;99.90
11035;DHT22;5571;48.110;-1.706;2023-06-14T02:38:04;17.90;99.90
11035;DHT22;5571;48.110;-1.706;2023-06-14T02:40:29;17.80;99.90
11035;DHT22;5571;48.110;-1.706;2023-06-14T02:42:55;17.80;99.90
11035;DHT22;5571;48.110;-1.706;2023-06-14T02:45:20;17.80;99.90
11035;DHT22;5571;48.110;-1.706;2023-06-14T02:47:46;17.80;99.90
11035;DHT22;5571;48.110;-1.706;2023-06-14T02:50:12;17.90;99.90
11035;DHT22;5571;48.110;-1.706;2023-06-14T02:52:37;17.90;99.90
11035;DHT22;5571;48.110;-1.706;2023-06-14T02:55:04;17.90;99.90
11035;DHT22;5571;48.110;-1.706;2023-06-14T02:57:30;17.90;99.90
11035;DHT22;5571;48.110;-1.706;2023-06-14T02:59:55;17.90;99.90
11035;DHT22;5571;48.110;-1.706;2023-06-14T03:02:21;17.90;99.90
11035;DHT22;5571;48.110;-1.706;2023-06-14T03:04:46;17.90;99.90
11035;DHT22;5571;48.110;-1.706;2023-06-14T03:07:12;17.90;99.90
11035;DHT22;5571;48.110;-1.706;2023-06-14T03:09:39;18.00;99.90
11035;DHT22;5571;48.110;-1.706;2023-06-14T03:12:05;17.90;99.90
11035;DHT22;5571;48.110;-1.706;2023-06-14T03:14:35;17.90;99.90
11035;DHT22;5571;48.110;-1.706;2023-06-14T03:17:01;17.80;99.90
11035;DHT22;5571;48.110;-1.706;2023-06-14T03:19:27;17.80;99.90
11035;DHT22;5571;48.110;-1.706;2023-06-14T03:21:53;17.90;99.90
11035;DHT22;5571;48.110;-1.706;2023-06-14T03:24:23;17.80;99.90
11035;DHT22;5571;48.110;-1.706;2023-06-14T03:26:49;17.70;99.90
11035;DHT22;5571;48.110;-1.706;2023-06-14T03:29:14;17.70;99.90
11035;DHT22;5571;48.110;-1.706;2023-06-14T03:31:56;17.70;99.90
11035;DHT22;5571;48.110;-1.706;2023-06-14T03:34:21;17.70;99.90
11035;DHT22;5571;48.110;-1.706;2023-06-14T03:36:47;17.60;99.90
11035;DHT22;5571;48.110;-1.706;2023-06-14T03:39:12;17.70;99.90
11035;DHT22;5571;48.110;-1.706;2023-06-14T03:41:38;17.70;99.90
11035;DHT22;5571;48.110;-1.706;2023-06-14T03:44:04;17.70;99.90
11035;DHT22;5571;48.110;-1.706;2023-06-14T03:46:29;17.70;99.90
11035;DHT22;5571;48.110;-1.706;2023-06-14T03:48:55;17.70;99.90
11035;DHT22;5571;48.110;-1.706;2023-06-14T03:51:21;17.70;99.90
11035;DHT22;5571;48.110;-1.706;2023-06-14T03:53:48;17.70;99.90
11035;DHT22;5571;48.110;-1.706;2023-06-14T03:56:13;17.60;99.90
11035;DHT22;5571;48.110;-1.706;2023-06-14T03:58:39;17.70;99.90
11035;DHT22;5571;48.110;-1.706;2023-06-14T04:01:04;17.60;99.90
11035;DHT22;5571;48.110;-1.706;2023-06-14T04:03:32;17.50;99.90
11035;DHT22;5571;48.110;-1.706;2023-06-14T04:05:58;17.50;99.90
11035;DHT22;5571;48.110;-1.706;2023-06-14T04:08:25;17.50;99.90
11035;DHT22;5571;48.110;-1.706;2023-06-14T04:10:51;17.50;99.90
11035;DHT22;5571;48.110;-1.706;2023-06-14T04:13:16;17.50;99.90
11035;DHT22;5571;48.110;-1.706;2023-06-14T04:15:42;17.50;99.90
11035;DHT22;5571;48.110;-1.706;2023-06-14T04:18:11;17.50;99.90
11035;DHT22;5571;48.110;-1.706;2023-06-14T04:20:36;17.50;99.90
11035;DHT22;5571;48.110;-1.706;2023-06-14T04:23:12;17.50;99.90
11035;DHT22;5571;48.110;-1.706;2023-06-14T04:25:38;17.50;99.90
11035;DHT22;5571;48.110;-1.706;2023-06-14T04:28:04;17.50;99.90
11035;DHT22;5571;48.110;-1.706;2023-06-14T04:30:29;17.40;99.90
11035;DHT22;5571;48.110;-1.706;2023-06-14T04:32:57;17.40;99.90
11035;DHT22;5571;48.110;-1.706;2023-06-14T04:35:22;17.40;99.90
11035;DHT22;5571;48.110;-1.706;2023-06-14T04:37:51;17.40;99.90
11035;DHT22;5571;48.110;-1.706;2023-06-14T04:40:18;17.30;99.90
11035;DHT22;5571;48.110;-1.706;2023-06-14T04:42:44;17.20;99.90
11035;DHT22;5571;48.110;-1.706;2023-06-14T04:45:11;17.30;99.90
11035;DHT22;5571;48.110;-1.706;2023-06-14T04:47:38;17.30;99.90
11035;DHT22;5571;48.110;-1.706;2023-06-14T04:50:04;17.40;99.90
11035;DHT22;5571;48.110;-1.706;2023-06-14T04:52:30;17.40;99.90
11035;DHT22;5571;48.110;-1.706;2023-06-14T04:54:57;17.50;99.90
11035;DHT22;5571;48.110;-1.706;2023-06-14T04:57:23;17.50;99.90
11035;DHT22;5571;48.110;-1.706;2023-06-14T04:59:50;17.50;99.90
11035;DHT22;5571;48.110;-1.706;2023-06-14T05:02:23;17.60;99.90
11035;DHT22;5571;48.110;-1.706;2023-06-14T05:04:50;17.50;99.90
11035;DHT22;5571;48.110;-1.706;2023-06-14T05:07:16;17.50;99.90
11035;DHT22;5571;48.110;-1.706;2023-06-14T05:09:41;17.40;99.90
11035;DHT22;5571;48.110;-1.706;2023-06-14T05:12:07;17.40;99.90
11035;DHT22;5571;48.110;-1.706;2023-06-14T05:14:34;17.50;99.90
11035;DHT22;5571;48.110;-1.706;2023-06-14T05:17:00;17.70;99.90
11035;DHT22;5571;48.110;-1.706;2023-06-14T05:19:25;17.70;99.90
11035;DHT22;5571;48.110;-1.706;2023-06-14T05:21:51;17.70;99.90
11035;DHT22;5571;48.110;-1.706;2023-06-14T05:24:18;17.90;99.90
11035;DHT22;5571;48.110;-1.706;2023-06-14T05:26:44;17.90;99.90
11035;DHT22;5571;48.110;-1.706;2023-06-14T05:29:09;18.00;99.90
11035;DHT22;5571;48.110;-1.706;2023-06-14T05:31:35;17.90;99.90
11035;DHT22;5571;48.110;-1.706;2023-06-14T05:34:01;17.90;99.90
11035;DHT22;5571;48.110;-1.706;2023-06-14T05:36:26;18.00;99.90
11035;DHT22;5571;48.110;-1.706;2023-06-14T05:38:53;17.80;99.90
11035;DHT22;5571;48.110;-1.706;2023-06-14T05:41:26;17.90;99.90
11035;DHT22;5571;48.110;-1.706;2023-06-14T05:43:54;18.00;99.90
11035;DHT22;5571;48.110;-1.706;2023-06-14T05:46:20;18.00;99.90
11035;DHT22;5571;48.110;-1.706;2023-06-14T05:48:51;18.00;99.90
11035;DHT22;5571;48.110;-1.706;2023-06-14T05:51:17;17.90;99.90
11035;DHT22;5571;48.110;-1.706;2023-06-14T05:53:50;18.10;99.90
11035;DHT22;5571;48.110;-1.706;2023-06-14T05:56:17;18.20;99.90
11035;DHT22;5571;48.110;-1.706;2023-06-14T05:58:46;18.30;99.90
11035;DHT22;5571;48.110;-1.706;2023-06-14T06:01:12;18.30;99.90
11035;DHT22;5571;48.110;-1.706;2023-06-14T06:03:38;18.40;99.90
11035;DHT22;5571;48.110;-1.706;2023-06-14T06:06:04;18.60;99.90
11035;DHT22;5571;48.110;-1.706;2023-06-14T06:08:30;18.50;99.90
11035;DHT22;5571;48.110;-1.706;2023-06-14T06:10:56;18.50;99.90
11035;DHT22;5571;48.110;-1.706;2023-06-14T06:13:22;18.60;99.90
11035;DHT22;5571;48.110;-1.706;2023-06-14T06:15:48;18.60;99.90
11035;DHT22;5571;48.110;-1.706;2023-06-14T06:18:14;18.60;99.90
11035;DHT22;5571;48.110;-1.706;2023-06-14T06:20:39;18.70;99.90
11035;DHT22;5571;48.110;-1.706;2023-06-14T06:23:05;18.80;99.90
11035;DHT22;5571;48.110;-1.706;2023-06-14T06:25:30;18.80;99.90
11035;DHT22;5571;48.110;-1.706;2023-06-14T06:27:57;18.90;99.90
11035;DHT22;5571;48.110;-1.706;2023-06-14T06:30:24;19.00;99.90
11035;DHT22;5571;48.110;-1.706;2023-06-14T06:32:50;19.10;99.90
11035;DHT22;5571;48.110;-1.706;2023-06-14T06:35:16;19.20;99.90
11035;DHT22;5571;48.110;-1.706;2023-06-14T06:37:42;19.20;99.90
11035;DHT22;5571;48.110;-1.706;2023-06-14T06:40:09;19.20;99.90
11035;DHT22;5571;48.110;-1.706;2023-06-14T06:42:35;19.30;99.90
11035;DHT22;5571;48.110;-1.706;2023-06-14T06:45:01;19.20;99.90
11035;DHT22;5571;48.110;-1.706;2023-06-14T06:47:27;19.30;99.90
11035;DHT22;5571;48.110;-1.706;2023-06-14T06:49:52;19.40;99.90
11035;DHT22;5571;48.110;-1.706;2023-06-14T06:52:18;19.50;99.90
11035;DHT22;5571;48.110;-1.706;2023-06-14T06:54:44;19.60;99.90
11035;DHT22;5571;48.110;-1.706;2023-06-14T06:57:09;19.70;99.90
11035;DHT22;5571;48.110;-1.706;2023-06-14T06:59:36;19.80;99.90
11035;DHT22;5571;48.110;-1.706;2023-06-14T07:02:02;19.90;99.90
11035;DHT22;5571;48.110;-1.706;2023-06-14T07:04:28;20.00;99.90
11035;DHT22;5571;48.110;-1.706;2023-06-14T07:06:53;20.10;99.90
11035;DHT22;5571;48.110;-1.706;2023-06-14T07:09:19;20.10;99.90
11035;DHT22;5571;48.110;-1.706;2023-06-14T07:11:46;20.10;99.90
11035;DHT22;5571;48.110;-1.706;2023-06-14T07:14:12;20.30;99.90
11035;DHT22;5571;48.110;-1.706;2023-06-14T07:16:38;20.40;99.90
11035;DHT22;5571;48.110;-1.706;2023-06-14T07:19:04;20.40;99.90
11035;DHT22;5571;48.110;-1.706;2023-06-14T07:21:30;20.50;99.90
11035;DHT22;5571;48.110;-1.706;2023-06-14T07:23:56;20.50;99.90
11035;DHT22;5571;48.110;-1.706;2023-06-14T07:26:22;20.60;99.90
11035;DHT22;5571;48.110;-1.706;2023-06-14T07:28:48;20.60;99.90
11035;DHT22;5571;48.110;-1.706;2023-06-14T07:31:17;20.70;99.90
11035;DHT22;5571;48.110;-1.706;2023-06-14T07:33:44;20.80;99.90
11035;DHT22;5571;48.110;-1.706;2023-06-14T07:36:10;20.80;99.90
11035;DHT22;5571;48.110;-1.706;2023-06-14T07:38:36;20.90;99.90
11035;DHT22;5571;48.110;-1.706;2023-06-14T07:41:02;20.90;99.90
11035;DHT22;5571;48.110;-1.706;2023-06-14T07:43:28;20.90;99.90
11035;DHT22;5571;48.110;-1.706;2023-06-14T07:45:53;20.80;99.90
11035;DHT22;5571;48.110;-1.706;2023-06-14T07:48:19;20.90;99.90
11035;DHT22;5571;48.110;-1.706;2023-06-14T07:50:45;21.10;99.90
11035;DHT22;5571;48.110;-1.706;2023-06-14T07:53:10;21.30;99.90
11035;DHT22;5571;48.110;-1.706;2023-06-14T07:55:36;21.40;99.90
11035;DHT22;5571;48.110;-1.706;2023-06-14T07:58:05;21.50;99.90
11035;DHT22;5571;48.110;-1.706;2023-06-14T08:00:31;21.60;99.90
11035;DHT22;5571;48.110;-1.706;2023-06-14T08:02:57;21.60;99.90
11035;DHT22;5571;48.110;-1.706;2023-06-14T08:05:25;21.70;99.90
11035;DHT22;5571;48.110;-1.706;2023-06-14T08:07:51;21.80;99.90
11035;DHT22;5571;48.110;-1.706;2023-06-14T08:10:17;21.90;99.90
11035;DHT22;5571;48.110;-1.706;2023-06-14T08:12:43;21.70;99.90
11035;DHT22;5571;48.110;-1.706;2023-06-14T08:15:08;21.80;99.90
11035;DHT22;5571;48.110;-1.706;2023-06-14T08:17:34;21.90;99.90
11035;DHT22;5571;48.110;-1.706;2023-06-14T08:20:00;22.00;99.90
11035;DHT22;5571;48.110;-1.706;2023-06-14T08:22:26;22.10;99.90
11035;DHT22;5571;48.110;-1.706;2023-06-14T08:24:53;22.10;99.90
11035;DHT22;5571;48.110;-1.706;2023-06-14T08:27:20;22.20;99.90
11035;DHT22;5571;48.110;-1.706;2023-06-14T08:29:45;22.20;99.90
11035;DHT22;5571;48.110;-1.706;2023-06-14T08:32:12;22.40;99.90
11035;DHT22;5571;48.110;-1.706;2023-06-14T08:34:37;22.50;99.90
11035;DHT22;5571;48.110;-1.706;2023-06-14T08:37:03;22.50;99.90
11035;DHT22;5571;48.110;-1.706;2023-06-14T08:39:29;22.60;99.90
11035;DHT22;5571;48.110;-1.706;2023-06-14T08:41:56;22.70;99.90
11035;DHT22;5571;48.110;-1.706;2023-06-14T08:44:22;22.80;99.90
11035;DHT22;5571;48.110;-1.706;2023-06-14T08:46:48;22.90;99.90
11035;DHT22;5571;48.110;-1.706;2023-06-14T08:49:16;22.90;99.90
11035;DHT22;5571;48.110;-1.706;2023-06-14T08:51:43;23.00;99.90
11035;DHT22;5571;48.110;-1.706;2023-06-14T08:54:10;23.20;99.90
11035;DHT22;5571;48.110;-1.706;2023-06-14T08:56:38;23.30;99.90
11035;DHT22;5571;48.110;-1.706;2023-06-14T08:59:04;23.50;99.90
11035;DHT22;5571;48.110;-1.706;2023-06-14T09:01:34;23.70;99.90
11035;DHT22;5571;48.110;-1.706;2023-06-14T09:04:00;23.80;99.90
11035;DHT22;5571;48.110;-1.706;2023-06-14T09:06:27;24.00;99.90
11035;DHT22;5571;48.110;-1.706;2023-06-14T09:08:54;24.10;99.90
11035;DHT22;5571;48.110;-1.706;2023-06-14T09:11:21;24.10;99.90
11035;DHT22;5571;48.110;-1.706;2023-06-14T09:13:48;24.40;99.90
11035;DHT22;5571;48.110;-1.706;2023-06-14T09:16:14;24.40;99.90
11035;DHT22;5571;48.110;-1.706;2023-06-14T09:18:43;24.40;99.90
11035;DHT22;5571;48.110;-1.706;2023-06-14T09:21:10;24.60;99.90
11035;DHT22;5571;48.110;-1.706;2023-06-14T09:23:41;24.60;99.90
11035;DHT22;5571;48.110;-1.706;2023-06-14T09:26:11;24.80;99.90
11035;DHT22;5571;48.110;-1.706;2023-06-14T09:28:41;24.70;99.90
11035;DHT22;5571;48.110;-1.706;2023-06-14T09:31:07;24.80;99.90
11035;DHT22;5571;48.110;-1.706;2023-06-14T09:33:35;24.90;99.90
11035;DHT22;5571;48.110;-1.706;2023-06-14T09:36:01;24.80;99.90
11035;DHT22;5571;48.110;-1.706;2023-06-14T09:38:26;25.00;99.90
11035;DHT22;5571;48.110;-1.706;2023-06-14T09:40:52;25.10;99.90
11035;DHT22;5571;48.110;-1.706;2023-06-14T09:43:18;25.20;99.90
11035;DHT22;5571;48.110;-1.706;2023-06-14T09:45:45;25.30;99.90
11035;DHT22;5571;48.110;-1.706;2023-06-14T09:48:14;25.30;99.90
11035;DHT22;5571;48.110;-1.706;2023-06-14T09:50:45;25.00;99.90
11035;DHT22;5571;48.110;-1.706;2023-06-14T09:53:11;25.00;99.90
11035;DHT22;5571;48.110;-1.706;2023-06-14T09:55:38;25.00;99.90
11035;DHT22;5571;48.110;-1.706;2023-06-14T09:58:07;25.00;99.90
11035;DHT22;5571;48.110;-1.706;2023-06-14T10:00:33;25.20;99.90
11035;DHT22;5571;48.110;-1.706;2023-06-14T10:03:28;25.30;99.90
11035;DHT22;5571;48.110;-1.706;2023-06-14T10:05:55;25.60;99.90
11035;DHT22;5571;48.110;-1.706;2023-06-14T10:08:27;25.70;99.90
11035;DHT22;5571;48.110;-1.706;2023-06-14T10:10:56;25.80;99.90
11035;DHT22;5571;48.110;-1.706;2023-06-14T10:13:22;25.90;99.90
11035;DHT22;5571;48.110;-1.706;2023-06-14T10:24:16;26.30;99.90
11035;DHT22;5571;48.110;-1.706;2023-06-14T10:26:56;26.30;99.90
11035;DHT22;5571;48.110;-1.706;2023-06-14T10:29:22;26.40;99.90
11035;DHT22;5571;48.110;-1.706;2023-06-14T10:31:49;26.40;99.90
11035;DHT22;5571;48.110;-1.706;2023-06-14T10:34:23;26.50;99.90
11035;DHT22;5571;48.110;-1.706;2023-06-14T10:39:29;26.50;99.90
11035;DHT22;5571;48.110;-1.706;2023-06-14T10:41:57;26.60;99.90
11035;DHT22;5571;48.110;-1.706;2023-06-14T10:49:17;26.80;99.90
11035;DHT22;5571;48.110;-1.706;2023-06-14T10:51:45;26.90;99.90
11035;DHT22;5571;48.110;-1.706;2023-06-14T10:54:15;27.00;99.90
11035;DHT22;5571;48.110;-1.706;2023-06-14T10:56:49;27.00;99.90
11035;DHT22;5571;48.110;-1.706;2023-06-14T10:59:16;27.10;99.90
11035;DHT22;5571;48.110;-1.706;2023-06-14T11:02:12;27.20;99.90
11035;DHT22;5571;48.110;-1.706;2023-06-14T11:04:52;27.20;99.90
11035;DHT22;5571;48.110;-1.706;2023-06-14T11:07:55;27.40;99.90
11035;DHT22;5571;48.110;-1.706;2023-06-14T11:10:36;27.50;99.90
11035;DHT22;5571;48.110;-1.706;2023-06-14T11:13:03;27.60;99.90
11035;DHT22;5571;48.110;-1.706;2023-06-14T11:15:33;27.70;99.90
11035;DHT22;5571;48.110;-1.706;2023-06-14T11:18:07;27.80;99.90
11035;DHT22;5571;48.110;-1.706;2023-06-14T11:20:34;27.90;99.90
11035;DHT22;5571;48.110;-1.706;2023-06-14T11:23:01;28.10;99.90
11035;DHT22;5571;48.110;-1.706;2023-06-14T11:25:27;28.20;99.90
11035;DHT22;5571;48.110;-1.706;2023-06-14T11:27:56;28.30;99.90
11035;DHT22;5571;48.110;-1.706;2023-06-14T11:30:23;28.40;99.90
11035;DHT22;5571;48.110;-1.706;2023-06-14T11:32:50;28.50;99.90
11035;DHT22;5571;48.110;-1.706;2023-06-14T11:35:17;28.60;99.90
11035;DHT22;5571;48.110;-1.706;2023-06-14T11:37:43;28.70;99.90
11035;DHT22;5571;48.110;-1.706;2023-06-14T11:40:13;28.80;99.90
11035;DHT22;5571;48.110;-1.706;2023-06-14T11:42:40;28.80;99.90
11035;DHT22;5571;48.110;-1.706;2023-06-14T11:45:10;28.90;99.90
11035;DHT22;5571;48.110;-1.706;2023-06-14T11:47:37;29.00;99.90
11035;DHT22;5571;48.110;-1.706;2023-06-14T11:50:04;29.00;99.90
11035;DHT22;5571;48.110;-1.706;2023-06-14T11:52:31;29.00;99.90
11035;DHT22;5571;48.110;-1.706;2023-06-14T11:54:57;29.00;99.90
11035;DHT22;5571;48.110;-1.706;2023-06-14T11:57:24;29.10;99.90
11035;DHT22;5571;48.110;-1.706;2023-06-14T11:59:50;29.30;99.90
11035;DHT22;5571;48.110;-1.706;2023-06-14T12:02:17;29.20;99.90
11035;DHT22;5571;48.110;-1.706;2023-06-14T12:04:46;29.40;99.90
11035;DHT22;5571;48.110;-1.706;2023-06-14T12:07:13;29.30;99.90
11035;DHT22;5571;48.110;-1.706;2023-06-14T12:12:22;29.50;99.90
11035;DHT22;5571;48.110;-1.706;2023-06-14T12:14:48;29.50;99.90
11035;DHT22;5571;48.110;-1.706;2023-06-14T12:17:17;29.70;99.90
11035;DHT22;5571;48.110;-1.706;2023-06-14T12:19:44;29.80;99.90
11035;DHT22;5571;48.110;-1.706;2023-06-14T12:22:11;29.90;99.90
11035;DHT22;5571;48.110;-1.706;2023-06-14T12:24:37;29.90;99.90
11035;DHT22;5571;48.110;-1.706;2023-06-14T12:27:04;30.00;99.90
11035;DHT22;5571;48.110;-1.706;2023-06-14T12:29:30;30.10;99.90
11035;DHT22;5571;48.110;-1.706;2023-06-14T12:31:56;30.30;99.40
11035;DHT22;5571;48.110;-1.706;2023-06-14T12:34:26;30.40;98.90
11035;DHT22;5571;48.110;-1.706;2023-06-14T12:36:53;30.40;97.50
11035;DHT22;5571;48.110;-1.706;2023-06-14T12:39:19;30.40;97.50
11035;DHT22;5571;48.110;-1.706;2023-06-14T12:41:44;30.50;98.00
11035;DHT22;5571;48.110;-1.706;2023-06-14T12:44:11;30.50;97.70
11035;DHT22;5571;48.110;-1.706;2023-06-14T12:46:37;30.60;97.80
11035;DHT22;5571;48.110;-1.706;2023-06-14T12:49:05;30.70;97.80
11035;DHT22;5571;48.110;-1.706;2023-06-14T12:51:32;30.90;98.10
11035;DHT22;5571;48.110;-1.706;2023-06-14T12:53:58;31.00;98.10
11035;DHT22;5571;48.110;-1.706;2023-06-14T12:56:23;30.90;97.80
11035;DHT22;5571;48.110;-1.706;2023-06-14T12:58:49;30.80;97.70
11035;DHT22;5571;48.110;-1.706;2023-06-14T13:01:14;30.80;97.70
11035;DHT22;5571;48.110;-1.706;2023-06-14T13:03:40;30.80;97.30
11035;DHT22;5571;48.110;-1.706;2023-06-14T13:06:06;30.60;97.10
11035;DHT22;5571;48.110;-1.706;2023-06-14T13:08:31;30.90;97.90
11035;DHT22;5571;48.110;-1.706;2023-06-14T13:10:57;31.10;98.10
11035;DHT22;5571;48.110;-1.706;2023-06-14T13:13:23;31.30;97.30
11035;DHT22;5571;48.110;-1.706;2023-06-14T13:15:49;31.40;97.10
11035;DHT22;5571;48.110;-1.706;2023-06-14T13:18:15;31.40;96.60
11035;DHT22;5571;48.110;-1.706;2023-06-14T13:20:41;31.40;96.50
11035;DHT22;5571;48.110;-1.706;2023-06-14T13:23:06;31.10;96.40
11035;DHT22;5571;48.110;-1.706;2023-06-14T13:25:36;30.70;96.10
11035;DHT22;5571;48.110;-1.706;2023-06-14T13:28:04;30.40;96.50
11035;DHT22;5571;48.110;-1.706;2023-06-14T13:30:30;30.50;97.00
11035;DHT22;5571;48.110;-1.706;2023-06-14T13:32:56;30.70;97.40
11035;DHT22;5571;48.110;-1.706;2023-06-14T13:35:23;31.10;97.40
11035;DHT22;5571;48.110;-1.706;2023-06-14T13:37:48;31.30;96.60
11035;DHT22;5571;48.110;-1.706;2023-06-14T13:40:14;31.50;96.00
11035;DHT22;5571;48.110;-1.706;2023-06-14T13:42:41;31.70;96.00
11035;DHT22;5571;48.110;-1.706;2023-06-14T13:45:07;31.80;95.40
11035;DHT22;5571;48.110;-1.706;2023-06-14T13:47:33;31.90;95.90
11035;DHT22;5571;48.110;-1.706;2023-06-14T13:49:59;31.80;95.10
11035;DHT22;5571;48.110;-1.706;2023-06-14T13:52:25;31.90;95.20
11035;DHT22;5571;48.110;-1.706;2023-06-14T13:54:50;32.10;94.80
11035;DHT22;5571;48.110;-1.706;2023-06-14T13:57:17;31.80;93.10
11035;DHT22;5571;48.110;-1.706;2023-06-14T13:59:43;31.90;94.00
11035;DHT22;5571;48.110;-1.706;2023-06-14T14:02:12;32.10;94.20
11035;DHT22;5571;48.110;-1.706;2023-06-14T14:04:38;31.90;93.60
11035;DHT22;5571;48.110;-1.706;2023-06-14T14:07:05;32.10;94.10
11035;DHT22;5571;48.110;-1.706;2023-06-14T14:09:32;32.20;93.60
11035;DHT22;5571;48.110;-1.706;2023-06-14T14:12:01;32.30;93.00
11035;DHT22;5571;48.110;-1.706;2023-06-14T14:14:28;32.30;93.30
11035;DHT22;5571;48.110;-1.706;2023-06-14T14:16:53;32.30;94.30
11035;DHT22;5571;48.110;-1.706;2023-06-14T14:19:21;32.30;93.80
11035;DHT22;5571;48.110;-1.706;2023-06-14T14:21:47;32.30;93.50
11035;DHT22;5571;48.110;-1.706;2023-06-14T14:24:13;32.30;93.40
11035;DHT22;5571;48.110;-1.706;2023-06-14T14:26:39;32.40;93.70
11035;DHT22;5571;48.110;-1.706;2023-06-14T14:29:05;32.60;92.90
11035;DHT22;5571;48.110;-1.706;2023-06-14T14:31:31;32.60;93.10
11035;DHT22;5571;48.110;-1.706;2023-06-14T14:33:57;32.70;92.90
11035;DHT22;5571;48.110;-1.706;2023-06-14T14:36:23;32.60;92.80
11035;DHT22;5571;48.110;-1.706;2023-06-14T14:38:48;32.60;92.70
11035;DHT22;5571;48.110;-1.706;2023-06-14T14:41:14;32.40;92.10
11035;DHT22;5571;48.110;-1.706;2023-06-14T14:43:39;32.40;92.40
11035;DHT22;5571;48.110;-1.706;2023-06-14T14:46:05;32.40;92.40
11035;DHT22;5571;48.110;-1.706;2023-06-14T14:48:31;32.50;92.30
11035;DHT22;5571;48.110;-1.706;2023-06-14T14:50:57;32.40;92.10
11035;DHT22;5571;48.110;-1.706;2023-06-14T14:53:22;32.40;92.10
11035;DHT22;5571;48.110;-1.706;2023-06-14T14:55:49;32.50;92.20
11035;DHT22;5571;48.110;-1.706;2023-06-14T14:58:14;32.50;92.60
11035;DHT22;5571;48.110;-1.706;2023-06-14T15:00:45;32.50;91.90
11035;DHT22;5571;48.110;-1.706;2023-06-14T15:03:10;32.30;91.90
11035;DHT22;5571;48.110;-1.706;2023-06-14T15:05:36;32.30;91.60
11035;DHT22;5571;48.110;-1.706;2023-06-14T15:08:03;32.20;91.60
11035;DHT22;5571;48.110;-1.706;2023-06-14T15:10:29;31.90;91.70
11035;DHT22;5571;48.110;-1.706;2023-06-14T15:12:54;31.80;92.30
11035;DHT22;5571;48.110;-1.706;2023-06-14T15:15:21;31.70;92.80
11035;DHT22;5571;48.110;-1.706;2023-06-14T15:17:47;32.00;93.30
11035;DHT22;5571;48.110;-1.706;2023-06-14T15:20:13;32.10;93.30
11035;DHT22;5571;48.110;-1.706;2023-06-14T15:22:40;32.20;93.40
11035;DHT22;5571;48.110;-1.706;2023-06-14T15:25:06;32.10;93.10
11035;DHT22;5571;48.110;-1.706;2023-06-14T15:27:32;32.30;93.40
11035;DHT22;5571;48.110;-1.706;2023-06-14T15:29:57;32.30;93.00
11035;DHT22;5571;48.110;-1.706;2023-06-14T15:32:23;32.30;93.10
11035;DHT22;5571;48.110;-1.706;2023-06-14T15:34:49;32.40;93.50
11035;DHT22;5571;48.110;-1.706;2023-06-14T15:37:14;32.20;93.70
11035;DHT22;5571;48.110;-1.706;2023-06-14T15:39:40;32.20;93.70
11035;DHT22;5571;48.110;-1.706;2023-06-14T15:42:06;32.20;93.80
11035;DHT22;5571;48.110;-1.706;2023-06-14T15:44:33;32.10;93.70
11035;DHT22;5571;48.110;-1.706;2023-06-14T15:46:58;31.80;93.90
11035;DHT22;5571;48.110;-1.706;2023-06-14T15:49:24;31.80;94.00